Time;durP1;ratioP1;P1;durP2;ratioP2;P2;SDS_P1;SDS_P2;PMS_P1;PMS_P2;Temp;Humidity;BMP_temperature;BMP_pressure;BME280_temperature;BME280_humidity;BME280_pressure;Samples;Min_cycle;Max_cycle;Signal;HPM_P1;HPM_P2
2022/12/11 00:01:41;;;;;;;26.00;11.60;;;;;;;-0.01;78.27;97611.05;103410;1299;96080;-69
2022/12/11 00:04:09;;;;;;;27.80;11.00;;;;;;;-0.01;78.38;97602.36;103439;1301;110126;-68
2022/12/11 00:06:37;;;;;;;25.60;11.90;;;;;;;-0.01;78.46;97599.40;103509;1299;97869;-68
2022/12/11 00:09:06;;;;;;;25.40;11.70;;;;;;;-0.02;78.19;97595.28;103441;1299;108063;-69
2022/12/11 00:11:34;;;;;;;25.10;10.90;;;;;;;-0.02;78.29;97597.77;103414;1291;97862;-69
2022/12/11 00:14:04;;;;;;;24.80;10.90;;;;;;;-0.04;78.33;97603.76;103404;1305;95751;-67
2022/12/11 00:16:33;;;;;;;25.10;10.90;;;;;;;-0.05;78.31;97599.63;103305;1301;111566;-67
2022/12/11 00:19:01;;;;;;;22.50;10.10;;;;;;;-0.07;78.39;97599.20;103512;1295;97957;-67
2022/12/11 00:21:31;;;;;;;21.70;10.10;;;;;;;-0.09;78.31;97600.16;103557;1299;107206;-67
2022/12/11 00:24:00;;;;;;;24.40;10.90;;;;;;;-0.13;78.26;97596.20;103538;1305;98076;-68
2022/12/11 00:26:27;;;;;;;26.50;10.70;;;;;;;-0.15;78.30;97596.50;103292;1296;96958;-68
2022/12/11 00:28:58;;;;;;;24.80;9.90;;;;;;;-0.17;78.25;97591.03;103446;1293;111707;-68
2022/12/11 00:31:26;;;;;;;23.20;9.80;;;;;;;-0.20;78.29;97585.91;103545;1299;97895;-68
2022/12/11 00:33:55;;;;;;;22.80;9.50;;;;;;;-0.18;78.30;97578.35;103560;1297;107173;-67
2022/12/11 00:36:27;;;;;;;22.30;9.90;;;;;;;-0.19;78.34;97573.86;103495;1299;97959;-69
2022/12/11 00:38:57;;;;;;;22.50;10.40;;;;;;;-0.19;78.35;97573.70;103455;1299;97969;-68
2022/12/11 00:41:24;;;;;;;24.80;11.40;;;;;;;-0.20;78.43;97569.39;103432;1292;111671;-68
2022/12/11 00:43:52;;;;;;;21.70;9.40;;;;;;;-0.20;78.36;97569.39;103430;1298;95208;-68
2022/12/11 00:46:21;;;;;;;24.10;10.20;;;;;;;-0.20;78.47;97571.30;103400;1295;108109;-69
2022/12/11 00:48:50;;;;;;;23.50;10.50;;;;;;;-0.19;78.28;97573.18;103451;1298;97838;-69
2022/12/11 00:51:19;;;;;;;23.70;10.30;;;;;;;-0.18;78.43;97562.30;103339;1299;98037;-69
2022/12/11 00:53:47;;;;;;;22.30;10.00;;;;;;;-0.17;78.52;97561.54;103500;1295;111411;-69
2022/12/11 00:56:19;;;;;;;25.00;9.90;;;;;;;-0.16;78.40;97561.17;103495;1301;97828;-68
2022/12/11 00:58:49;;;;;;;24.40;10.60;;;;;;;-0.15;78.38;97561.48;103459;1291;107431;-69
2022/12/11 01:01:21;;;;;;;25.00;11.30;;;;;;;-0.13;78.41;97560.17;103424;1297;95206;-69
2022/12/11 01:03:52;;;;;;;26.90;10.70;;;;;;;-0.13;78.38;97558.77;103557;1297;98607;-70
2022/12/11 01:06:25;;;;;;;22.50;10.10;;;;;;;-0.14;78.37;97558.65;103523;1299;111706;-69
2022/12/11 01:11:44;;;;;;;19.00;7.90;;;;;;;-0.19;78.35;97552.80;103375;1299;107863;-69
2022/12/11 01:14:14;;;;;;;20.60;8.00;;;;;;;-0.21;78.31;97557.44;103475;1297;97859;-67
2022/12/11 01:16:42;;;;;;;18.30;7.20;;;;;;;-0.23;78.42;97560.31;103494;1297;97959;-69
2022/12/11 01:19:11;;;;;;;17.40;7.30;;;;;;;-0.25;78.29;97550.52;103451;1297;110676;-69
2022/12/11 01:21:40;;;;;;;18.10;7.50;;;;;;;-0.29;78.25;97550.86;103437;1297;96210;-69
2022/12/11 01:24:10;;;;;;;19.70;7.90;;;;;;;-0.30;78.35;97555.98;103447;1297;108082;-69
2022/12/11 01:26:38;;;;;;;18.40;7.50;;;;;;;-0.32;78.14;97556.25;103444;1299;97951;-69
2022/12/11 01:29:06;;;;;;;18.10;7.10;;;;;;;-0.35;78.31;97553.10;103546;1298;97926;-68
2022/12/11 01:31:34;;;;;;;19.40;8.20;;;;;;;-0.36;78.29;97545.82;103534;1291;111746;-68
2022/12/11 01:34:02;;;;;;;18.80;6.90;;;;;;;-0.36;78.32;97540.27;103424;1299;97973;-68
2022/12/11 01:36:31;;;;;;;17.30;7.00;;;;;;;-0.36;78.39;97534.36;103536;1293;108055;-68
2022/12/11 01:39:01;;;;;;;19.50;7.60;;;;;;;-0.38;78.37;97535.67;103564;1298;97857;-68
2022/12/11 01:41:31;;;;;;;17.00;7.10;;;;;;;-0.39;78.39;97522.16;103537;1299;96949;-68
2022/12/11 01:44:02;;;;;;;16.80;6.70;;;;;;;-0.39;78.38;97517.76;103554;1299;112124;-68
2022/12/11 01:46:35;;;;;;;16.80;6.40;;;;;;;-0.39;78.37;97517.59;103356;1306;98015;-68
2022/12/11 01:49:09;;;;;;;17.30;7.60;;;;;;;-0.40;78.42;97512.23;103466;1298;107209;-67
2022/12/11 01:51:48;;;;;;;19.20;7.80;;;;;;;-0.41;78.40;97502.05;103522;1291;97978;-69
2022/12/11 01:54:20;;;;;;;15.10;6.40;;;;;;;-0.41;78.44;97494.92;103537;1291;97962;-68
2022/12/11 01:56:54;;;;;;;17.60;6.50;;;;;;;-0.43;78.28;97491.21;103395;1291;111787;-67
2022/12/11 01:59:28;;;;;;;17.10;6.30;;;;;;;-0.45;78.32;97490.76;103405;1300;98080;-67
2022/12/11 02:02:05;;;;;;;17.70;6.70;;;;;;;-0.47;78.37;97477.10;103499;1298;107441;-67
2022/12/11 02:04:37;;;;;;;15.00;6.40;;;;;;;-0.51;78.38;97471.73;103464;1292;97046;-68
2022/12/11 02:07:07;;;;;;;19.20;6.80;;;;;;;-0.54;78.38;97467.04;103551;1297;97012;-68
2022/12/11 02:09:40;;;;;;;15.20;6.50;;;;;;;-0.56;78.36;97464.70;103550;1291;111231;-68
2022/12/11 02:12:30;;;;;;;16.70;6.20;;;;;;;-0.57;78.29;97461.94;103518;1297;97873;-67
2022/12/11 02:15:22;;;;;;;17.10;6.60;;;;;;;-0.57;78.32;97458.98;103534;1297;108688;-67
2022/12/11 02:18:19;;;;;;;17.90;6.50;;;;;;;-0.56;78.41;97455.80;103527;1297;97027;-68
2022/12/11 02:21:07;;;;;;;16.00;6.50;;;;;;;-0.58;78.28;97457.66;103458;1301;97981;-68
2022/12/11 02:24:34;;;;;;;18.50;7.60;;;;;;;-0.58;78.36;97453.30;103473;1294;110800;-67
2022/12/11 02:27:24;;;;;;;15.90;6.40;;;;;;;-0.57;78.39;97456.20;103070;1299;97966;-67
2022/12/11 02:30:07;;;;;;;17.10;6.60;;;;;;;-0.58;78.41;97454.89;103474;1298;107869;-67
2022/12/11 02:32:54;;;;;;;16.50;6.00;;;;;;;-0.59;78.48;97452.80;103547;1297;95666;-66
2022/12/11 02:35:38;;;;;;;18.40;7.00;;;;;;;-0.60;78.33;97455.30;103323;1294;97887;-67
2022/12/11 02:38:26;;;;;;;;;;;;;;;-0.61;78.53;97457.63;103299;1301;111791;-68
2022/12/11 02:40:59;;;;;;;17.10;6.80;;;;;;;-0.63;78.50;97452.18;103310;1294;98590;-67
2022/12/11 02:43:33;;;;;;;15.70;6.20;;;;;;;-0.64;78.37;97448.05;103314;1298;107222;-67
2022/12/11 02:46:05;;;;;;;18.40;6.80;;;;;;;-0.63;78.34;97452.53;103315;1305;97814;-68
2022/12/11 02:48:36;;;;;;;20.40;6.90;;;;;;;-0.61;78.44;97459.40;103321;1293;97933;-67
2022/12/11 02:51:07;;;;;;;19.40;7.40;;;;;;;-0.61;78.38;97459.00;103322;1294;111214;-69
2022/12/11 02:53:40;;;;;;;17.50;6.60;;;;;;;-0.60;78.42;97456.67;103371;1294;97721;-70
2022/12/11 02:56:24;;;;;;;17.80;7.10;;;;;;;-0.58;78.43;97459.24;103319;1300;107506;-68
2022/12/11 02:59:00;;;;;;;16.90;6.60;;;;;;;-0.59;78.35;97460.48;103310;1291;95219;-69
2022/12/11 03:01:28;;;;;;;16.30;6.40;;;;;;;-0.58;78.60;97454.19;103346;1295;97873;-67
2022/12/11 03:03:58;;;;;;;18.00;7.20;;;;;;;-0.57;78.42;97452.73;103249;1301;111669;-67
2022/12/11 03:06:43;;;;;;;17.40;6.80;;;;;;;-0.58;78.42;97452.27;103237;1304;96975;-67
2022/12/11 03:09:12;;;;;;;17.90;6.40;;;;;;;-0.57;78.37;97451.18;103245;1302;107534;-68
2022/12/11 03:11:40;;;;;;;18.30;7.20;;;;;;;-0.57;78.47;97449.42;103281;1301;96954;-68
2022/12/11 03:14:10;;;;;;;17.00;7.20;;;;;;;-0.56;78.53;97447.96;103312;1301;97891;-68
2022/12/11 03:16:55;;;;;;;17.90;6.40;;;;;;;-0.57;78.36;97446.96;103312;1295;111646;-70
2022/12/11 03:19:35;;;;;;;18.20;6.40;;;;;;;-0.58;78.51;97438.68;103311;1295;97957;-69
2022/12/11 03:22:16;;;;;;;17.80;6.80;;;;;;;-0.60;78.48;97433.02;103278;1294;108033;-68
2022/12/11 03:25:07;;;;;;;18.30;7.40;;;;;;;-0.61;78.43;97422.95;103257;1294;98479;-68
2022/12/11 03:27:47;;;;;;;18.80;7.70;;;;;;;-0.62;78.28;97413.12;103321;1300;98495;-68
2022/12/11 03:30:19;;;;;;;19.00;7.70;;;;;;;-0.62;78.39;97402.00;103268;1301;111824;-68
2022/12/11 03:33:07;;;;;;;17.30;6.80;;;;;;;-0.64;78.36;97391.11;103331;1291;97895;-68
2022/12/11 03:35:41;;;;;;;17.70;6.80;;;;;;;-0.66;78.38;97378.15;103257;1300;107649;-68
2022/12/11 03:38:19;;;;;;;17.80;6.40;;;;;;;-0.67;78.36;97371.63;103282;1295;95192;-69
2022/12/11 03:40:54;;;;;;;16.10;6.50;;;;;;;-0.67;78.45;97369.20;103216;1301;97973;-68
2022/12/11 03:43:25;;;;;;;18.90;8.00;;;;;;;-0.68;78.48;97361.22;103282;1294;110768;-67
2022/12/11 03:45:57;;;;;;;17.90;7.30;;;;;;;-0.68;78.48;97356.20;103229;1294;97893;-68
2022/12/11 03:48:32;;;;;;;17.70;7.80;;;;;;;-0.68;78.49;97352.50;103211;1300;108325;-68
2022/12/11 03:51:05;;;;;;;20.80;7.90;;;;;;;-0.67;78.43;97346.39;103237;1293;97918;-68
2022/12/11 03:53:37;;;;;;;20.30;7.60;;;;;;;-0.68;78.38;97345.02;103264;1300;97973;-67
2022/12/11 03:56:10;;;;;;;18.00;7.40;;;;;;;-0.70;78.40;97343.39;103259;1293;109880;-68
2022/12/11 03:58:39;;;;;;;19.10;7.40;;;;;;;-0.70;78.52;97342.36;103327;1301;98017;-67
2022/12/11 04:01:11;;;;;;;18.50;7.90;;;;;;;-0.69;78.51;97337.11;103311;1301;108464;-67
2022/12/11 04:03:39;;;;;;;18.10;7.40;;;;;;;-0.71;78.44;97329.88;103246;1295;99014;-69
2022/12/11 04:06:07;;;;;;;20.60;8.00;;;;;;;-0.72;78.43;97328.54;103312;1301;97916;-68
2022/12/11 04:08:35;;;;;;;18.30;7.20;;;;;;;-0.73;78.39;97323.19;103267;1298;111496;-68
2022/12/11 04:16:40;;;;;;;19.30;7.80;;;;;;;-0.72;78.58;97319.34;103284;1301;98051;-69
2022/12/11 04:24:49;;;;;;;18.30;7.20;;;;;;;-0.74;78.38;97313.35;103327;1295;97892;-69
2022/12/11 04:30:12;;;;;;;20.00;8.00;;;;;;;-0.77;78.53;97309.65;103236;1301;97835;-67
2022/12/11 04:32:42;;;;;;;18.70;7.70;;;;;;;-0.77;78.50;97309.65;103323;1284;97996;-68
2022/12/11 04:35:13;;;;;;;19.70;7.80;;;;;;;-0.78;78.48;97304.30;103411;1297;110764;-70
2022/12/11 04:37:43;;;;;;;20.60;8.10;;;;;;;-0.79;78.57;97305.59;103516;1298;97939;-67
2022/12/11 04:40:16;;;;;;;20.90;8.60;;;;;;;-0.79;78.58;97309.42;103405;1302;107856;-68
2022/12/11 04:42:46;;;;;;;19.90;8.40;;;;;;;-0.79;78.42;97309.74;103454;1300;97835;-68
2022/12/11 04:45:14;;;;;;;20.30;8.30;;;;;;;-0.78;78.43;97311.27;103330;1297;145474;-68
2022/12/11 04:47:42;;;;;;;20.30;8.70;;;;;;;-0.77;78.51;97306.20;103482;1294;111361;-68
2022/12/11 04:50:13;;;;;;;20.00;7.80;;;;;;;-0.76;78.54;97306.64;103488;1298;97878;-68
2022/12/11 04:52:43;;;;;;;21.00;8.30;;;;;;;-0.75;78.38;97303.98;103438;1302;107237;-68
2022/12/11 04:55:11;;;;;;;18.90;7.70;;;;;;;-0.78;78.52;97300.11;103448;1297;97979;-68
2022/12/11 04:57:41;;;;;;;17.80;7.00;;;;;;;-0.77;78.53;97296.42;103537;1294;97881;-68
2022/12/11 05:00:12;;;;;;;21.00;7.70;;;;;;;-0.77;78.52;97294.33;103500;1292;111616;-69
2022/12/11 05:02:43;;;;;;;20.50;8.30;;;;;;;-0.78;78.48;97294.90;103499;1294;97896;-69
2022/12/11 05:05:13;;;;;;;19.20;8.00;;;;;;;-0.80;78.44;97294.15;103466;1292;108059;-68
2022/12/11 05:07:42;;;;;;;19.40;8.40;;;;;;;-0.81;78.50;97287.21;103493;1305;97899;-67
2022/12/11 05:10:11;;;;;;;21.90;8.80;;;;;;;-0.81;78.51;97281.48;103459;1292;97973;-68
2022/12/11 05:12:39;;;;;;;20.00;7.90;;;;;;;-0.82;78.49;97279.14;103436;1294;113864;-69
2022/12/11 05:15:09;;;;;;;20.70;7.80;;;;;;;-0.85;78.43;97278.59;103490;1294;98390;-68
2022/12/11 05:17:40;;;;;;;20.40;7.90;;;;;;;-0.85;78.43;97279.65;103479;1285;107418;-68
2022/12/11 05:20:10;;;;;;;21.00;7.70;;;;;;;-0.86;78.50;97270.48;103403;1292;98062;-68
2022/12/11 05:22:38;;;;;;;20.70;7.50;;;;;;;-0.87;78.39;97276.80;103470;1294;97973;-68
2022/12/11 05:25:09;;;;;;;19.40;7.80;;;;;;;-0.88;78.53;97272.66;103553;1291;112061;-68
2022/12/11 05:27:38;;;;;;;18.70;7.60;;;;;;;-0.88;78.49;97272.33;103548;1291;98435;-67
2022/12/11 05:30:09;;;;;;;19.40;7.70;;;;;;;-0.90;78.39;97268.95;103558;1291;108082;-67
2022/12/11 05:32:37;;;;;;;20.10;8.00;;;;;;;-0.92;78.44;97271.48;103528;1299;96550;-67
2022/12/11 05:35:07;;;;;;;20.30;7.90;;;;;;;-0.92;78.48;97271.64;103555;1299;97900;-68
2022/12/11 05:37:36;;;;;;;21.70;9.10;;;;;;;-0.91;78.48;97272.45;103526;1291;111739;-69
2022/12/11 05:40:07;;;;;;;22.70;9.00;;;;;;;-0.91;78.42;97274.20;103409;1298;97824;-67
2022/12/11 05:42:35;;;;;;;24.90;8.70;;;;;;;-0.92;78.50;97273.77;103471;1298;107397;-68
2022/12/11 05:45:05;;;;;;;21.00;9.00;;;;;;;-0.93;78.46;97271.00;103401;1291;98067;-68
2022/12/11 05:47:33;;;;;;;25.00;8.90;;;;;;;-0.93;78.59;97268.61;103431;1291;97954;-68
2022/12/11 05:50:01;;;;;;;23.30;9.10;;;;;;;-0.94;78.52;97266.55;103454;1285;111692;-67
2022/12/11 05:52:32;;;;;;;21.90;7.80;;;;;;;-0.94;78.57;97263.25;103462;1298;97828;-67
2022/12/11 05:55:00;;;;;;;21.80;8.60;;;;;;;-0.94;78.54;97259.77;103481;1291;107793;-68
2022/12/11 05:57:28;;;;;;;19.30;7.50;;;;;;;-0.95;78.56;97257.39;103453;1298;96166;-67
2022/12/11 05:59:56;;;;;;;22.80;9.80;;;;;;;-0.94;78.54;97252.81;103566;1298;97964;-67
2022/12/11 06:02:24;;;;;;;21.10;8.50;;;;;;;-0.94;78.62;97248.79;103493;1291;113965;-67
2022/12/11 06:04:54;;;;;;;19.40;7.40;;;;;;;-0.94;78.62;97241.87;103475;1291;98039;-67
2022/12/11 06:07:22;;;;;;;21.60;8.40;;;;;;;-0.95;78.43;97245.35;103491;1285;108076;-67
2022/12/11 06:09:50;;;;;;;22.70;8.50;;;;;;;-0.95;78.57;97243.46;103569;1291;95264;-68
2022/12/11 06:12:18;;;;;;;22.20;8.00;;;;;;;-0.93;78.60;97241.45;103554;1299;97851;-67
2022/12/11 06:14:47;;;;;;;20.00;9.00;;;;;;;-0.93;78.56;97246.30;103455;1291;111711;-67
2022/12/11 06:17:15;;;;;;;20.20;7.90;;;;;;;-0.94;78.61;97239.89;103549;1298;97952;-68
2022/12/11 06:19:43;;;;;;;21.30;8.60;;;;;;;-0.96;78.49;97237.05;103278;1294;107501;-68
2022/12/11 06:22:11;;;;;;;21.50;8.30;;;;;;;-0.96;78.55;97239.02;103520;1298;97938;-68
2022/12/11 06:24:39;;;;;;;19.80;9.30;;;;;;;-0.99;78.47;97239.33;103559;1292;97851;-68
2022/12/11 06:27:08;;;;;;;20.90;8.00;;;;;;;-1.01;78.64;97236.80;103514;1298;112306;-69
2022/12/11 06:29:38;;;;;;;18.10;7.30;;;;;;;-1.00;78.58;97240.96;103557;1291;96322;-69
2022/12/11 06:32:08;;;;;;;19.40;8.20;;;;;;;-1.01;78.56;97240.27;103457;1291;108165;-68
2022/12/11 06:34:36;;;;;;;22.10;9.30;;;;;;;-1.00;78.54;97237.48;103440;1285;95601;-68
2022/12/11 06:37:04;;;;;;;21.60;8.40;;;;;;;-0.98;78.58;97237.36;103463;1298;97964;-68
2022/12/11 06:39:32;;;;;;;20.90;8.70;;;;;;;-0.97;78.57;97239.75;103545;1291;112008;-69
2022/12/11 06:42:00;;;;;;;20.80;7.60;;;;;;;-0.96;78.47;97236.91;103496;1285;99016;-69
2022/12/11 06:44:28;;;;;;;18.90;8.10;;;;;;;-0.97;78.50;97233.66;103512;1291;108042;-68
2022/12/11 06:46:56;;;;;;;19.30;8.20;;;;;;;-0.98;78.54;97230.38;103467;1291;97916;-68
2022/12/11 06:49:24;;;;;;;19.20;8.10;;;;;;;-0.98;78.50;97236.66;103539;1291;97943;-68
2022/12/11 06:51:52;;;;;;;24.50;8.90;;;;;;;-0.99;78.58;97235.14;103486;1291;111648;-69
2022/12/11 06:54:26;;;;;;;19.40;8.20;;;;;;;-0.98;78.60;97232.83;103521;1291;95467;-71
2022/12/11 06:56:54;;;;;;;20.00;8.50;;;;;;;-1.01;78.47;97230.39;103542;1291;107497;-69
2022/12/11 06:59:22;;;;;;;20.70;8.60;;;;;;;-1.04;78.54;97230.90;103420;1297;97965;-70
2022/12/11 07:01:50;;;;;;;22.10;9.90;;;;;;;-1.03;78.55;97229.82;103544;1294;97876;-68
2022/12/11 07:04:23;;;;;;;21.60;9.20;;;;;;;-1.01;78.64;97228.16;103527;1298;111713;-71
2022/12/11 07:06:53;;;;;;;19.80;7.90;;;;;;;-1.01;78.73;97228.30;103568;1298;97613;-68
2022/12/11 07:09:25;;;;;;;19.50;7.90;;;;;;;-1.04;78.57;97222.22;103480;1289;108054;-69
2022/12/11 07:11:53;;;;;;;21.60;8.60;;;;;;;-1.06;78.54;97219.50;103476;1297;97905;-68
2022/12/11 07:14:21;;;;;;;20.70;8.00;;;;;;;-1.07;78.41;97216.10;103458;1292;97757;-68
2022/12/11 07:16:49;;;;;;;22.00;8.50;;;;;;;-1.10;78.41;97209.15;103436;1291;110333;-67
2022/12/11 07:19:18;;;;;;;20.40;8.70;;;;;;;-1.13;78.51;97206.54;103349;1294;97897;-66
2022/12/11 07:21:49;;;;;;;22.90;9.30;;;;;;;-1.13;78.57;97204.77;103332;1298;108129;-67
2022/12/11 07:24:19;;;;;;;21.60;9.20;;;;;;;-1.13;78.54;97204.97;103472;1291;98028;-69
2022/12/11 07:26:47;;;;;;;24.30;10.00;;;;;;;-1.13;78.62;97203.21;103452;1291;97917;-70
2022/12/11 07:29:15;;;;;;;26.80;10.40;;;;;;;-1.12;78.65;97202.97;103379;1298;111312;-68
2022/12/11 07:31:43;;;;;;;26.20;10.90;;;;;;;-1.11;78.52;97202.09;103479;1291;97860;-68
2022/12/11 07:34:13;;;;;;;24.50;9.20;;;;;;;-1.08;78.66;97199.46;103471;1285;108011;-69
2022/12/11 07:36:43;;;;;;;24.90;9.80;;;;;;;-1.06;78.56;97196.05;103264;1294;95486;-69
2022/12/11 07:39:12;;;;;;;24.20;9.70;;;;;;;-1.06;78.60;97194.84;103299;1293;98929;-69
2022/12/11 07:41:40;;;;;;;24.70;10.40;;;;;;;-1.07;78.41;97196.09;103463;1298;112094;-67
2022/12/11 07:44:08;;;;;;;25.50;10.30;;;;;;;-1.08;78.66;97195.41;103460;1291;97873;-68
2022/12/11 07:46:39;;;;;;;22.40;9.30;;;;;;;-1.07;78.48;97197.48;103359;1292;107991;-70
2022/12/11 07:49:06;;;;;;;22.80;9.80;;;;;;;-1.07;78.47;97195.04;103375;1291;97960;-67
2022/12/11 07:51:38;;;;;;;22.80;9.60;;;;;;;-1.06;78.52;97194.31;103338;1291;97862;-68
2022/12/11 07:54:15;;;;;;;21.30;10.00;;;;;;;-1.06;78.66;97197.44;103331;1295;111243;-70
2022/12/11 07:56:46;;;;;;;22.90;10.40;;;;;;;-1.04;78.51;97200.13;103387;1298;97871;-71
2022/12/11 07:59:22;;;;;;;27.30;11.00;;;;;;;-1.04;78.54;97199.06;103452;1291;108080;-69
2022/12/11 08:01:50;;;;;;;27.10;11.40;;;;;;;-1.03;78.56;97191.73;103432;1298;97980;-69
2022/12/11 08:04:18;;;;;;;23.70;10.30;;;;;;;-1.01;78.43;97190.23;103335;1285;97938;-69
2022/12/11 08:06:46;;;;;;;22.30;9.40;;;;;;;-1.03;78.39;97196.60;103320;1291;110917;-67
2022/12/11 08:09:15;;;;;;;25.80;10.90;;;;;;;-1.05;78.54;97203.46;103354;1293;97994;-67
2022/12/11 08:11:49;;;;;;;22.00;10.00;;;;;;;-1.02;78.54;97204.04;105215;1276;107095;-69
2022/12/11 08:14:18;;;;;;;21.60;9.30;;;;;;;-1.01;78.55;97205.18;105209;1286;95491;-67
2022/12/11 08:16:48;;;;;;;23.20;10.00;;;;;;;-0.99;78.60;97206.05;104733;1291;97861;-66
2022/12/11 08:19:18;;;;;;;22.70;9.50;;;;;;;-0.98;78.49;97204.98;103469;1298;111763;-65
2022/12/11 08:21:46;;;;;;;23.20;9.90;;;;;;;-0.97;78.58;97197.77;103483;1298;97988;-65
2022/12/11 08:24:19;;;;;;;22.20;9.50;;;;;;;-0.97;78.48;97199.18;103479;1294;108292;-66
2022/12/11 08:26:50;;;;;;;22.60;9.90;;;;;;;-0.97;78.48;97193.30;103488;1294;98404;-64
2022/12/11 08:29:18;;;;;;;22.90;10.50;;;;;;;-0.99;78.56;97188.52;103483;1294;97762;-65
2022/12/11 08:31:48;;;;;;;22.50;10.10;;;;;;;-1.01;78.53;97192.64;103392;1301;110643;-65
2022/12/11 08:34:19;;;;;;;23.80;10.80;;;;;;;-1.01;78.49;97189.90;103382;1294;97877;-65
2022/12/11 08:36:47;;;;;;;23.40;10.80;;;;;;;-1.01;78.47;97184.81;103382;1292;107381;-66
2022/12/11 08:39:14;;;;;;;23.90;10.30;;;;;;;-1.03;78.47;97182.34;103375;1302;97971;-65
2022/12/11 08:41:42;;;;;;;27.10;11.90;;;;;;;-1.04;78.40;97181.35;103455;1302;97827;-66
2022/12/11 08:44:12;;;;;;;21.60;10.10;;;;;;;-1.05;78.57;97177.04;103399;1298;111688;-66
2022/12/11 08:46:45;;;;;;;21.50;9.90;;;;;;;-1.08;78.55;97177.39;103448;1291;97886;-67
2022/12/11 08:49:16;;;;;;;23.70;10.60;;;;;;;-1.12;78.51;97181.94;103377;1297;108097;-65
2022/12/11 08:51:46;;;;;;;24.30;10.40;;;;;;;-1.17;78.50;97183.39;103389;1302;97929;-65
2022/12/11 08:54:15;;;;;;;26.70;11.40;;;;;;;-1.22;78.55;97180.55;103501;1294;97881;-66
2022/12/11 08:56:43;;;;;;;26.70;12.40;;;;;;;-1.23;78.55;97180.95;103307;1293;111693;-66
2022/12/11 08:59:11;;;;;;;28.80;12.50;;;;;;;-1.24;78.45;97180.87;103510;1297;97894;-67
2022/12/11 09:01:41;;;;;;;27.80;12.10;;;;;;;-1.26;78.75;97182.51;103490;1292;107887;-65
2022/12/11 09:04:12;;;;;;;27.80;13.10;;;;;;;-1.26;78.41;97182.17;103505;1293;97875;-67
2022/12/11 09:06:40;;;;;;;25.20;11.50;;;;;;;-1.28;78.60;97175.84;103473;1301;97931;-66
2022/12/11 09:09:08;;;;;;;25.90;11.80;;;;;;;-1.29;78.54;97176.97;103547;1297;111784;-67
2022/12/11 09:11:36;;;;;;;29.10;13.50;;;;;;;-1.30;78.51;97174.73;103533;1291;97893;-66
2022/12/11 09:14:09;;;;;;;29.70;14.10;;;;;;;-1.31;78.36;97168.35;103467;1291;108080;-66
2022/12/11 09:16:41;;;;;;;31.10;14.00;;;;;;;-1.32;78.40;97169.67;103460;1300;97867;-65
2022/12/11 09:19:13;;;;;;;;;;;;;;;-1.35;78.44;97164.75;103486;1291;97944;-66
2022/12/11 09:21:44;;;;;;;29.00;13.50;;;;;;;-1.37;78.61;97161.56;103504;1297;112207;-66
2022/12/11 09:24:14;;;;;;;35.50;15.70;;;;;;;-1.39;78.57;97167.05;103513;1291;97883;-67
2022/12/11 09:26:43;;;;;;;34.30;14.80;;;;;;;-1.42;78.42;97163.75;103437;1294;108118;-66
2022/12/11 09:29:14;;;;;;;38.40;16.10;;;;;;;-1.47;78.54;97167.66;103467;1301;97916;-67
2022/12/11 09:31:42;;;;;;;34.60;15.30;;;;;;;-1.46;78.68;97167.26;103517;1291;97905;-67
2022/12/11 09:34:14;;;;;;;31.30;15.30;;;;;;;-1.44;78.56;97162.99;103431;1301;111615;-67
2022/12/11 09:36:43;;;;;;;35.30;15.90;;;;;;;-1.46;78.57;97164.50;103499;1292;97893;-65
2022/12/11 09:39:16;;;;;;;38.30;16.90;;;;;;;-1.47;78.62;97169.77;103492;1291;108079;-67
2022/12/11 09:42:14;;;;;;;38.80;17.00;;;;;;;-1.48;78.51;97168.41;103490;1298;97929;-66
2022/12/11 09:44:58;;;;;;;32.90;16.10;;;;;;;-1.49;78.61;97168.31;103304;1298;95174;-66
2022/12/11 09:47:42;;;;;;;36.80;17.20;;;;;;;-1.47;78.73;97172.05;103514;1291;111249;-65
2022/12/11 09:50:18;;;;;;;38.20;19.20;;;;;;;-1.46;78.63;97166.23;103486;1291;97877;-66
2022/12/11 09:53:07;;;;;;;39.00;19.00;;;;;;;-1.49;78.66;97161.70;103470;1298;108234;-67
2022/12/11 09:55:56;;;;;;;36.80;16.50;;;;;;;-1.51;78.62;97163.34;103545;1291;97932;-66
2022/12/11 09:58:49;;;;;;;38.00;18.80;;;;;;;-1.51;78.66;97160.89;103408;1291;97960;-67
2022/12/11 10:01:39;;;;;;;40.00;19.60;;;;;;;-1.54;78.41;97158.81;103444;1298;111353;-67
2022/12/11 10:04:30;;;;;;;37.00;18.90;;;;;;;-1.58;78.68;97158.88;103428;1285;97950;-67
2022/12/11 10:07:24;;;;;;;35.20;17.40;;;;;;;-1.59;78.50;97160.15;103500;1298;110266;-66
2022/12/11 10:10:29;;;;;;;29.20;14.40;;;;;;;-1.62;78.58;97156.13;103520;1294;97896;-67
2022/12/11 10:13:16;;;;;;;36.10;18.30;;;;;;;-1.65;78.45;97156.64;103434;1298;97891;-68
2022/12/11 10:16:20;;;;;;;34.50;16.70;;;;;;;-1.68;78.52;97161.48;103391;1286;111509;-68
2022/12/11 10:18:54;;;;;;;35.50;17.60;;;;;;;-1.68;78.54;97169.66;103429;1291;97854;-67
2022/12/11 10:21:28;;;;;;;35.80;18.30;;;;;;;-1.71;78.52;97169.63;103376;1294;107937;-67
2022/12/11 10:24:03;;;;;;;38.30;17.50;;;;;;;-1.72;78.67;97176.65;103440;1300;97977;-66
2022/12/11 10:26:31;;;;;;;33.80;17.10;;;;;;;-1.71;78.63;97184.07;103507;1298;95263;-65
2022/12/11 10:29:05;;;;;;;33.20;15.80;;;;;;;-1.73;78.57;97181.58;103496;1291;111645;-66
2022/12/11 10:31:45;;;;;;;36.10;17.90;;;;;;;-1.77;78.53;97188.74;103534;1291;98532;-66
2022/12/11 10:34:36;;;;;;;36.10;16.40;;;;;;;-1.79;78.53;97189.35;103511;1284;107419;-66
2022/12/11 10:37:05;;;;;;;36.30;17.60;;;;;;;-1.76;78.67;97194.09;103318;1301;97924;-67
2022/12/11 10:39:37;;;;;;;38.90;17.10;;;;;;;-1.82;78.52;97193.84;103451;1299;97750;-67
2022/12/11 10:42:18;;;;;;;34.20;15.70;;;;;;;-1.84;78.55;97194.13;103428;1293;110754;-67
2022/12/11 10:45:04;;;;;;;34.50;18.10;;;;;;;-1.84;78.53;97193.96;103267;1291;95203;-66
2022/12/11 10:47:32;;;;;;;36.50;17.90;;;;;;;-1.87;78.60;97192.72;103381;1299;107192;-66
2022/12/11 10:50:07;;;;;;;36.40;16.50;;;;;;;-1.87;78.45;97190.79;103384;1291;97885;-67
2022/12/11 10:52:43;;;;;;;34.90;16.40;;;;;;;-1.87;78.62;97186.27;103425;1299;97895;-65
2022/12/11 10:55:28;;;;;;;34.10;16.00;;;;;;;-1.87;78.74;97188.73;103365;1285;111560;-66
2022/12/11 10:58:04;;;;;;;37.70;17.70;;;;;;;-1.89;78.80;97186.05;103409;1298;96747;-67
2022/12/11 11:00:38;;;;;;;37.80;17.60;;;;;;;-1.87;78.61;97183.67;103402;1291;107382;-66
2022/12/11 11:03:22;;;;;;;36.80;16.70;;;;;;;-1.87;78.56;97177.09;103485;1299;97974;-66
2022/12/11 11:06:05;;;;;;;33.40;15.70;;;;;;;-1.84;78.64;97168.77;103460;1299;97843;-66
2022/12/11 11:08:47;;;;;;;33.80;14.80;;;;;;;-1.84;78.65;97170.13;103339;1295;111742;-66
2022/12/11 11:11:27;;;;;;;38.70;17.70;;;;;;;-1.82;78.56;97183.05;103372;1300;97766;-65
2022/12/11 11:14:13;;;;;;;35.70;15.80;;;;;;;-1.82;78.55;97190.53;103361;1301;108711;-67
2022/12/11 11:16:47;;;;;;;35.20;17.00;;;;;;;-1.82;78.56;97191.06;103440;1301;97986;-64
2022/12/11 11:19:25;;;;;;;34.90;15.50;;;;;;;-1.81;78.76;97191.87;103491;1292;97978;-67
2022/12/11 11:22:04;;;;;;;36.00;16.40;;;;;;;-1.77;78.78;97193.42;103361;1298;111135;-65
2022/12/11 11:24:45;;;;;;;35.70;15.80;;;;;;;-1.75;78.64;97199.06;103307;1294;96313;-66
2022/12/11 11:27:35;;;;;;;33.10;16.70;;;;;;;-1.74;78.65;97203.19;103411;1291;108380;-66
2022/12/11 11:30:20;;;;;;;35.20;16.50;;;;;;;-1.75;78.65;97200.95;103546;1291;98949;-65
2022/12/11 11:33:12;;;;;;;33.70;16.70;;;;;;;-1.75;78.63;97188.27;103454;1291;97872;-66
2022/12/11 11:36:03;;;;;;;32.70;15.40;;;;;;;-1.79;78.60;97200.98;103402;1292;111672;-66
2022/12/11 11:38:45;;;;;;;31.40;14.30;;;;;;;-1.84;78.42;97207.69;103493;1291;97962;-66
2022/12/11 11:41:41;;;;;;;32.10;14.40;;;;;;;-1.90;78.47;97216.84;103508;1298;107098;-67
2022/12/11 11:44:16;;;;;;;32.90;15.20;;;;;;;-1.92;78.39;97220.98;103503;1291;96968;-66
2022/12/11 11:46:57;;;;;;;33.50;15.00;;;;;;;-1.96;78.59;97217.48;103441;1299;98401;-66
2022/12/11 11:49:31;;;;;;;34.70;14.80;;;;;;;-1.99;78.95;97207.38;103439;1292;111095;-65
2022/12/11 11:52:19;;;;;;;29.70;14.10;;;;;;;-1.98;78.72;97199.70;103393;1291;97989;-67
2022/12/11 11:54:52;;;;;;;33.10;13.90;;;;;;;-2.00;78.78;97195.80;103423;1291;109049;-67
2022/12/11 11:57:42;;;;;;;31.90;14.00;;;;;;;-2.00;78.65;97196.16;103477;1299;98009;-67